^^
Station Historical Data
Daily Summary for February 8, 2018 Units:  Metric    English   Both
« Previous Day
Next Day »
Daily Weekly Monthly Yearly Custom
  High: Low: Average:
Temperature: -17.8 °C -24.9 °C -20.9 °C
Dew Point: -17.8 °C -25.7 °C -21.5 °C
Humidity: Humidity% 88% 92%
Wind Speed: 0km/h 0km/h 0.2km/h
Wind Gust: 0km/h - -
Wind- - SSE
Pressure: 0 hPa 34371.3 hPa -
Precipitation: 12.7 mm    
Historical Graphs
 
 
Tabular Data for February 8, 2018
Time Temperature Dew Point Pressure Wind Wind Speed Wind Gust Humidity Rainfall Rate (Hourly) solar Conditions
-17.8 °C -17.8 °C 0 hPa Calm     Humidity% 0 mm SoftwareType W/m2 Conditions
00:01 -22.8 °C -23.5 °C 34371.3 hPa Calm     91% 0 mm WeatherDisplay:10.37 W/m2 RA
00:06 -22.9 °C -23.6 °C 34371.3 hPa Calm     91% 0 mm WeatherDisplay:10.37 W/m2 RA
00:11 -22.9 °C -23.6 °C 34371.3 hPa Calm     91% 0 mm WeatherDisplay:10.37 W/m2 FEW
00:16 -22.9 °C -23.7 °C 34371.3 hPa Calm     91% 0 mm WeatherDisplay:10.37 W/m2 FEW
00:21 -23 °C -23.7 °C 34384.8 hPa Calm     91% 0 mm WeatherDisplay:10.37 W/m2 FEW
00:26 -23 °C -23.7 °C 34371.3 hPa Calm     91% 0 mm WeatherDisplay:10.37 W/m2 FEW
00:31 -23.1 °C -23.8 °C 34384.8 hPa Calm     90% 0 mm WeatherDisplay:10.37 W/m2 FEW
00:36 -23.2 °C -23.9 °C 34384.8 hPa Calm     90% 0 mm WeatherDisplay:10.37 W/m2 FEW
00:41 -23.2 °C -23.9 °C 34384.8 hPa Calm     90% 0 mm WeatherDisplay:10.37 W/m2 FEW
00:46 -23.3 °C -24 °C 34384.8 hPa Calm     90% 0 mm WeatherDisplay:10.37 W/m2 FEW
00:51 -23.4 °C -24.2 °C 34384.8 hPa Calm     89% 0 mm WeatherDisplay:10.37 W/m2 FEW
00:56 -23.4 °C -24.2 °C 34384.8 hPa Calm     90% 0 mm WeatherDisplay:10.37 W/m2 FEW
01:01 -23.6 °C -24.3 °C 34384.8 hPa Calm     89% 0 mm WeatherDisplay:10.37 W/m2 FEW
01:06 -23.7 °C -24.5 °C 34384.8 hPa Calm     89% 0 mm WeatherDisplay:10.37 W/m2 FEW
01:11 -23.8 °C -24.6 °C 34384.8 hPa Calm     89% 0 mm WeatherDisplay:10.37 W/m2 FEW
01:16 -23.9 °C -24.7 °C 34384.8 hPa Calm     89% 0 mm WeatherDisplay:10.37 W/m2 FEW
01:21 -23.9 °C -24.7 °C 34384.8 hPa Calm     89% 0 mm WeatherDisplay:10.37 W/m2 FEW
01:26 -24 °C -24.8 °C 34395 hPa Calm     89% 0 mm WeatherDisplay:10.37 W/m2 FEW
01:31 -24.1 °C -24.9 °C 34395 hPa Calm     89% 0 mm WeatherDisplay:10.37 W/m2 FEW
01:36 -24.2 °C -24.9 °C 34395 hPa Calm     89% 0 mm WeatherDisplay:10.37 W/m2 FEW
01:41 -24.3 °C -25.1 °C 34395 hPa Calm     89% 0 mm WeatherDisplay:10.37 W/m2 FEW
01:46 -24.3 °C -25.2 °C 34395 hPa Calm     88% 0 mm WeatherDisplay:10.37 W/m2 FEW
01:51 -24.4 °C -25.3 °C 34395 hPa Calm     88% 0 mm WeatherDisplay:10.37 W/m2 FEW
01:56 -24.5 °C -25.3 °C 34395 hPa Calm     89% 0 mm WeatherDisplay:10.37 W/m2 FEW
02:01 -24.6 °C -25.4 °C 34395 hPa Calm     88% 0 mm WeatherDisplay:10.37 W/m2 FEW
02:06 -24.6 °C -25.4 °C 34395 hPa Calm     89% 0 mm WeatherDisplay:10.37 W/m2 FEW
02:11 -24.6 °C -25.4 °C 34395 hPa Calm     89% 0 mm WeatherDisplay:10.37 W/m2 FEW
02:16 -24.7 °C -25.4 °C 34395 hPa Calm     89% 0 mm WeatherDisplay:10.37 W/m2 FEW
02:21 -24.7 °C -25.5 °C 34405.1 hPa Calm     89% 0 mm WeatherDisplay:10.37 W/m2 FEW
02:26 -24.7 °C -25.5 °C 34405.1 hPa Calm     89% 0 mm WeatherDisplay:10.37 W/m2 FEW
02:31 -24.8 °C -25.6 °C 34405.1 hPa Calm     89% 0 mm WeatherDisplay:10.37 W/m2 FEW
02:36 -24.8 °C -25.6 °C 34405.1 hPa Calm     89% 0 mm WeatherDisplay:10.37 W/m2 FEW
02:41 -24.8 °C -25.7 °C 34405.1 hPa Calm     89% 0 mm WeatherDisplay:10.37 W/m2 FEW
02:46 -24.9 °C -25.7 °C 34405.1 hPa Calm     89% 0 mm WeatherDisplay:10.37 W/m2 FEW
02:51 -24.9 °C -25.7 °C 34405.1 hPa Calm     89% 0 mm WeatherDisplay:10.37 W/m2 FEW
02:56 -24.8 °C -25.7 °C 34405.1 hPa Calm     89% 0 mm WeatherDisplay:10.37 W/m2 FEW
03:01 -24.8 °C -25.5 °C 34405.1 hPa Calm     90% 0 mm WeatherDisplay:10.37 W/m2 FEW
03:06 -24.8 °C -25.5 °C 34405.1 hPa Calm     90% 0 mm WeatherDisplay:10.37 W/m2 FEW
03:11 -24.8 °C -25.5 °C 34405.1 hPa Calm     90% 0 mm WeatherDisplay:10.37 W/m2 FEW
03:16 -24.8 °C -25.7 °C 34405.1 hPa Calm     89% 0 mm WeatherDisplay:10.37 W/m2 FEW
03:21 -24.8 °C -25.7 °C 34405.1 hPa Calm     89% 0 mm WeatherDisplay:10.37 W/m2 FEW
03:26 -24.9 °C -25.7 °C 34405.1 hPa Calm     89% 0 mm WeatherDisplay:10.37 W/m2 FEW
03:31 -24.9 °C -25.7 °C 34405.1 hPa Calm     89% 0 mm WeatherDisplay:10.37 W/m2 FEW
03:36 -24.9 °C -25.7 °C 34405.1 hPa Calm     89% 0 mm WeatherDisplay:10.37 W/m2 FEW
03:41 -24.9 °C -25.6 °C 34405.1 hPa Calm     90% 0 mm WeatherDisplay:10.37 W/m2 FEW
03:46 -24.8 °C -25.5 °C 34405.1 hPa Calm     90% 0 mm WeatherDisplay:10.37 W/m2 FEW
03:51 -24.8 °C -25.5 °C 34405.1 hPa Calm     90% 0 mm WeatherDisplay:10.37 W/m2 FEW
03:56 -24.8 °C -25.4 °C 34405.1 hPa Calm     90% 0 mm WeatherDisplay:10.37 W/m2 FEW
04:01 -24.7 °C -25.4 °C 34405.1 hPa Calm     90% 0 mm WeatherDisplay:10.37 W/m2 FEW
04:06 -24.7 °C -25.3 °C 34418.7 hPa Calm     91% 0 mm WeatherDisplay:10.37 W/m2 FEW
04:11 -24.6 °C -25.3 °C 34418.7 hPa Calm     90% 0 mm WeatherDisplay:10.37 W/m2 FEW
04:16 -24.6 °C -25.2 °C 34418.7 hPa Calm     91% 0 mm WeatherDisplay:10.37 W/m2 FEW
04:21 -24.6 °C -25.2 °C 34418.7 hPa Calm     91% 0 mm WeatherDisplay:10.37 W/m2 FEW
04:26 -24.5 °C -25.1 °C 34418.7 hPa Calm     91% 0 mm WeatherDisplay:10.37 W/m2 FEW
04:31 -24.4 °C -25.1 °C 34418.7 hPa Calm     91% 0 mm WeatherDisplay:10.37 W/m2 FEW
04:36 -24.3 °C -24.9 °C 34428.8 hPa Calm     91% 0 mm WeatherDisplay:10.37 W/m2 FEW
04:41 -24.2 °C -24.8 °C 34428.8 hPa Calm     92% 0 mm WeatherDisplay:10.37 W/m2 FEW
04:46 -24.1 °C -24.7 °C 34428.8 hPa Calm     92% 0 mm WeatherDisplay:10.37 W/m2 FEW
04:51 -24 °C -24.6 °C 34428.8 hPa Calm     92% 0 mm WeatherDisplay:10.37 W/m2 FEW
04:56 -23.9 °C -24.5 °C 34428.8 hPa Calm     92% 0 mm WeatherDisplay:10.37 W/m2 FEW
05:01 -23.8 °C -24.4 °C 34428.8 hPa Calm     92% 0 mm WeatherDisplay:10.37 W/m2 FEW
05:06 -23.7 °C -24.3 °C 34428.8 hPa Calm     92% 0 mm WeatherDisplay:10.37 W/m2 FEW
05:11 -23.7 °C -24.3 °C 34428.8 hPa Calm     92% 0 mm WeatherDisplay:10.37 W/m2 FEW
05:16 -23.7 °C -24.2 °C 34428.8 hPa Calm     92% 0 mm WeatherDisplay:10.37 W/m2 FEW
05:21 -23.6 °C -24.2 °C 34428.8 hPa Calm     92% 0 mm WeatherDisplay:10.37 W/m2 FEW
05:26 -23.6 °C -24.2 °C 34428.8 hPa Calm     92% 0 mm WeatherDisplay:10.37 W/m2 FEW
05:31 -23.5 °C -24.1 °C 34428.8 hPa Calm     92% 0 mm WeatherDisplay:10.37 W/m2 FEW
05:36 -23.5 °C -24.1 °C 34428.8 hPa Calm     92% 0 mm WeatherDisplay:10.37 W/m2 FEW
05:41 -23.4 °C -24.1 °C 34428.8 hPa Calm     92% 0 mm WeatherDisplay:10.37 W/m2 FEW
05:46 -23.4 °C -24 °C 34428.8 hPa Calm     92% 0 mm WeatherDisplay:10.37 W/m2 FEW
05:51 -23.4 °C -23.9 °C 34428.8 hPa Calm     92% 0 mm WeatherDisplay:10.37 W/m2 FEW
05:56 -23.3 °C -23.9 °C 34428.8 hPa Calm     92% 0 mm WeatherDisplay:10.37 W/m2 FEW
06:01 -23.2 °C -23.8 °C 34442.4 hPa Calm     92% 0 mm WeatherDisplay:10.37 W/m2 FEW
06:06 -23.2 °C -23.7 °C 34428.8 hPa Calm     93% 0 mm WeatherDisplay:10.37 W/m2 FEW
06:11 -23 °C -23.6 °C 34442.4 hPa Calm     93% 0 mm WeatherDisplay:10.37 W/m2 FEW
06:16 -22.9 °C -23.4 °C 34442.4 hPa Calm     93% 0 mm WeatherDisplay:10.37 W/m2 FEW
06:21 -22.8 °C -23.4 °C 34442.4 hPa Calm     93% 0 mm WeatherDisplay:10.37 W/m2 FEW
06:26 -22.7 °C -23.3 °C 34442.4 hPa Calm     93% 0 mm WeatherDisplay:10.37 W/m2 FEW
06:31 -22.7 °C -23.2 °C 34442.4 hPa Calm     93% 0 mm WeatherDisplay:10.37 W/m2 FEW
06:36 -22.6 °C -23.1 °C 34442.4 hPa Calm     93% 0 mm WeatherDisplay:10.37 W/m2 FEW
06:41 -22.5 °C -23 °C 34442.4 hPa Calm     93% 0 mm WeatherDisplay:10.37 W/m2 FEW
06:46 -22.4 °C -22.9 °C 34442.4 hPa Calm     93% 0 mm WeatherDisplay:10.37 W/m2 FEW
06:51 -22.4 °C -22.9 °C 34442.4 hPa Calm     93% 0 mm WeatherDisplay:10.37 W/m2 FEW
06:56 -22.3 °C -22.8 °C 34442.4 hPa Calm     93% 0 mm WeatherDisplay:10.37 W/m2 FEW
07:01 -22.2 °C -22.7 °C 34442.4 hPa Calm     93% 0 mm WeatherDisplay:10.37 W/m2 FEW
07:06 -22.1 °C -22.6 °C 34442.4 hPa Calm     93% 0 mm WeatherDisplay:10.37 W/m2 FEW
07:11 -22.1 °C -22.6 °C 34442.4 hPa Calm     93% 0 mm WeatherDisplay:10.37 W/m2 FEW
07:16 -21.9 °C -22.4 °C 34442.4 hPa Calm     93% 0 mm WeatherDisplay:10.37 W/m2 FEW
07:21 -21.9 °C -22.4 °C 34452.6 hPa Calm     93% 0 mm WeatherDisplay:10.37 W/m2 FEW
07:26 -21.8 °C -22.4 °C 34452.6 hPa Calm     93% 0 mm WeatherDisplay:10.37 W/m2 FEW
07:31 -21.8 °C -22.3 °C 34452.6 hPa Calm     93% 0 mm WeatherDisplay:10.37 W/m2 FEW
07:36 -21.7 °C -22.3 °C 34452.6 hPa Calm     93% 0 mm WeatherDisplay:10.37 W/m2 FEW
07:41 -21.6 °C -22.2 °C 34452.6 hPa Calm     93% 0 mm WeatherDisplay:10.37 W/m2 FEW
07:46 -21.6 °C -22 °C 34452.6 hPa Calm     94% 0 mm WeatherDisplay:10.37 W/m2 FEW
07:51 -21.4 °C -22 °C 34452.6 hPa Calm     93% 0 mm WeatherDisplay:10.37 W/m2 FEW
07:56 -21.3 °C -21.8 °C 34452.6 hPa Calm     94% 0 mm WeatherDisplay:10.37 W/m2 FEW
08:01 -21.3 °C -21.7 °C 34462.7 hPa Calm     94% 0 mm WeatherDisplay:10.37 W/m2 FEW
08:06 -21.2 °C -21.7 °C 34462.7 hPa Calm     94% 0 mm WeatherDisplay:10.37 W/m2 FEW
08:11 -21.2 °C -21.6 °C 34462.7 hPa Calm     94% 0 mm WeatherDisplay:10.37 W/m2 FEW
08:16 -21.1 °C -21.5 °C 34462.7 hPa SSE 1.8 km/h 9 km/h 94% 0 mm WeatherDisplay:10.37 W/m2 FEW
08:21 -20.9 °C -21.3 °C 34462.7 hPa SSE 0.3 km/h   94% 0 mm WeatherDisplay:10.37 W/m2 FEW
08:26 -20.7 °C -21.2 °C 34462.7 hPa Calm     94% 0 mm WeatherDisplay:10.37 W/m2 FEW
08:31 -20.7 °C -21.1 °C 34462.7 hPa Calm     94% 0 mm WeatherDisplay:10.37 W/m2 FEW
08:36 -20.6 °C -21.1 °C 34476.3 hPa Calm     94% 0 mm WeatherDisplay:10.37 W/m2 FEW
08:41 -20.4 °C -20.9 °C 34476.3 hPa Calm     94% 7.62 mm WeatherDisplay:10.37 W/m2 RA
08:46 -20.4 °C -20.8 °C 34476.3 hPa Calm     94% 12.7 mm WeatherDisplay:10.37 W/m2 RA
08:51 -20.3 °C -20.8 °C 34476.3 hPa Calm     94% 12.7 mm WeatherDisplay:10.37 W/m2 RA
08:56 -20.2 °C -20.7 °C 34476.3 hPa Calm     94% 12.7 mm WeatherDisplay:10.37 W/m2 FEW
09:01 -20.1 °C -20.6 °C 34476.3 hPa Calm     94% 12.7 mm WeatherDisplay:10.37 W/m2 RA
09:06 -20 °C -20.4 °C 34476.3 hPa Calm     94% 12.7 mm WeatherDisplay:10.37 W/m2 RA
09:11 -20 °C -20.4 °C 34476.3 hPa Calm     94% 12.7 mm WeatherDisplay:10.37 W/m2 FEW
09:16 -19.9 °C -20.4 °C 34476.3 hPa Calm     94% 12.7 mm WeatherDisplay:10.37 W/m2 FEW
09:21 -19.9 °C -20.4 °C 34476.3 hPa Calm     94% 12.7 mm WeatherDisplay:10.37 W/m2 FEW
09:26 -19.9 °C -20.3 °C 34476.3 hPa Calm     94% 12.7 mm WeatherDisplay:10.37 W/m2 FEW
09:31 -19.8 °C -20.3 °C 34486.4 hPa Calm     94% 12.7 mm WeatherDisplay:10.37 W/m2 FEW
09:36 -19.8 °C -20.3 °C 34486.4 hPa Calm     94% 12.7 mm WeatherDisplay:10.37 W/m2 FEW
09:41 -19.8 °C -20.3 °C 34486.4 hPa Calm     94% 12.7 mm WeatherDisplay:10.37 W/m2 FEW
09:46 -19.8 °C -20.2 °C 34476.3 hPa Calm     94% 7.62 mm WeatherDisplay:10.37 W/m2 FEW
09:51 -19.8 °C -20.2 °C 34476.3 hPa Calm     94% 7.62 mm WeatherDisplay:10.37 W/m2 FEW
09:56 -19.7 °C -20.2 °C 34476.3 hPa Calm     94% 7.62 mm WeatherDisplay:10.37 W/m2 FEW
10:01 -19.7 °C -20.2 °C 34476.3 hPa Calm     94% 0 mm WeatherDisplay:10.37 W/m2 FEW
10:06 -19.7 °C -20.1 °C 34476.3 hPa Calm     94% 0 mm WeatherDisplay:10.37 W/m2 FEW
10:11 -19.6 °C -20.1 °C 34476.3 hPa Calm     94% 0 mm WeatherDisplay:10.37 W/m2 FEW
10:16 -19.6 °C -20.1 °C 34476.3 hPa Calm     94% 0 mm WeatherDisplay:10.37 W/m2 FEW
10:21 -19.5 °C -19.9 °C 34486.4 hPa Calm     94% 0 mm WeatherDisplay:10.37 W/m2 FEW
10:26 -19.4 °C -19.9 °C 34486.4 hPa South 0.3 km/h   94% 0 mm WeatherDisplay:10.37 W/m2 FEW
10:31 -19.3 °C -19.8 °C 34486.4 hPa Calm     94% 0 mm WeatherDisplay:10.37 W/m2 FEW
10:36 -19.2 °C -19.6 °C 34486.4 hPa SSE 1.6 km/h 3.1 km/h 94% 0 mm WeatherDisplay:10.37 W/m2 FEW
10:41 -19.1 °C -19.5 °C 34486.4 hPa Calm     94% 0 mm WeatherDisplay:10.37 W/m2 FEW
10:46 -18.9 °C -19.4 °C 34486.4 hPa Calm     94% 0 mm WeatherDisplay:10.37 W/m2 FEW
10:51 -18.9 °C -19.3 °C 34486.4 hPa Calm     94% 0 mm WeatherDisplay:10.37 W/m2 FEW
10:57 -18.8 °C -19.3 °C 34486.4 hPa Calm     94% 0 mm WeatherDisplay:10.37 W/m2 FEW
11:02 -18.8 °C -19.2 °C 34486.4 hPa Calm   3.1 km/h 94% 0 mm WeatherDisplay:10.37 W/m2 FEW
11:07 -18.7 °C -19.2 °C 34486.4 hPa Calm     94% 0 mm WeatherDisplay:10.37 W/m2 FEW
11:12 -18.7 °C -19.2 °C 34496.6 hPa Calm     94% 0 mm WeatherDisplay:10.37 W/m2 FEW
11:17 -18.8 °C -19.2 °C 34496.6 hPa Calm     94% 0 mm WeatherDisplay:10.37 W/m2 FEW
11:22 -18.8 °C -19.3 °C 34496.6 hPa Calm     94% 0 mm WeatherDisplay:10.37 W/m2 FEW
11:27 -18.8 °C -19.3 °C 34496.6 hPa Calm     94% 0 mm WeatherDisplay:10.37 W/m2 FEW
11:32 -18.8 °C -19.3 °C 34496.6 hPa Calm     94% 0 mm WeatherDisplay:10.37 W/m2 FEW
11:37 -18.8 °C -19.3 °C 34496.6 hPa Calm     93% 0 mm WeatherDisplay:10.37 W/m2 FEW
11:42 -18.7 °C -19.3 °C 34496.6 hPa Calm     93% 0 mm WeatherDisplay:10.37 W/m2 FEW
11:47 -18.7 °C -19.2 °C 34496.6 hPa Calm     94% 0 mm WeatherDisplay:10.37 W/m2 FEW
11:52 -18.6 °C -19.1 °C 34496.6 hPa Calm     94% 0 mm WeatherDisplay:10.37 W/m2 FEW
11:57 -18.6 °C -19.1 °C 34496.6 hPa Calm   6 km/h 94% 0 mm WeatherDisplay:10.37 W/m2 FEW
12:02 -18.5 °C -19.1 °C 34496.6 hPa Calm     93% 0 mm WeatherDisplay:10.37 W/m2 FEW
12:07 -18.5 °C -18.9 °C 34496.6 hPa Calm     94% 0 mm WeatherDisplay:10.37 W/m2 FEW
12:12 -18.4 °C -19 °C 34496.6 hPa Calm     93% 0 mm WeatherDisplay:10.37 W/m2 FEW
12:17 -18.4 °C -19 °C 34496.6 hPa Calm     93% 0 mm WeatherDisplay:10.37 W/m2 FEW
12:22 -18.4 °C -19 °C 34496.6 hPa Calm     93% 0 mm WeatherDisplay:10.37 W/m2 FEW
12:27 -18.4 °C -19 °C 34496.6 hPa SSE 0.5 km/h 2.6 km/h 93% 0 mm WeatherDisplay:10.37 W/m2 FEW
12:32 -18.4 °C -18.9 °C 34496.6 hPa SE 4.2 km/h 9 km/h 93% 0 mm WeatherDisplay:10.37 W/m2 FEW
12:37 -18.4 °C -18.9 °C 34496.6 hPa Calm     93% 0 mm WeatherDisplay:10.37 W/m2 FEW
12:42 -18.4 °C -18.9 °C 34496.6 hPa Calm     93% 0 mm WeatherDisplay:10.37 W/m2 FEW
12:47 -18.3 °C -18.9 °C 34496.6 hPa ESE 1.6 km/h 6 km/h 93% 0 mm WeatherDisplay:10.37 W/m2 FEW
12:52 -18.3 °C -18.8 °C 34510.1 hPa Calm     93% 0 mm WeatherDisplay:10.37 W/m2 FEW
12:57 -18.3 °C -18.9 °C 34510.1 hPa Calm     93% 0 mm WeatherDisplay:10.37 W/m2 FEW
13:02 -18.3 °C -18.9 °C 34510.1 hPa Calm     93% 0 mm WeatherDisplay:10.37 W/m2 FEW
13:07 -18.3 °C -18.9 °C 34510.1 hPa Calm     93% 0 mm WeatherDisplay:10.37 W/m2 FEW
13:12 -18.3 °C -18.9 °C 34510.1 hPa Calm   6 km/h 93% 0 mm WeatherDisplay:10.37 W/m2 FEW
13:17 -18.4 °C -18.9 °C 34510.1 hPa Calm     93% 0 mm WeatherDisplay:10.37 W/m2 FEW
13:22 -18.4 °C -18.9 °C 34510.1 hPa SSW 0.5 km/h 2.6 km/h 93% 0 mm WeatherDisplay:10.37 W/m2 FEW
13:27 -18.4 °C -18.9 °C 34510.1 hPa Calm     93% 0 mm WeatherDisplay:10.37 W/m2 FEW
13:32 -18.4 °C -18.9 °C 34510.1 hPa Calm     93% 0 mm WeatherDisplay:10.37 W/m2 FEW
13:37 -18.4 °C -18.9 °C 34510.1 hPa Calm     93% 0 mm WeatherDisplay:10.37 W/m2 FEW
13:42 -18.4 °C -19 °C 34510.1 hPa Calm   3.1 km/h 93% 0 mm WeatherDisplay:10.37 W/m2 FEW
13:47 -18.4 °C -19 °C 34510.1 hPa SSW 1.6 km/h 5.1 km/h 93% 0 mm WeatherDisplay:10.37 W/m2 FEW
13:52 -18.4 °C -19 °C 34510.1 hPa Calm   6 km/h 93% 0 mm WeatherDisplay:10.37 W/m2 FEW
13:57 -18.4 °C -19 °C 34510.1 hPa South 1.8 km/h 6 km/h 93% 0 mm WeatherDisplay:10.37 W/m2 FEW
14:02 -18.5 °C -19.1 °C 34510.1 hPa NW 1.8 km/h 9 km/h 93% 0 mm WeatherDisplay:10.37 W/m2 FEW
14:07 -18.5 °C -19.1 °C 34510.1 hPa South 3.4 km/h 7.7 km/h 93% 0 mm WeatherDisplay:10.37 W/m2 FEW
14:12 -18.5 °C -19.1 °C 34510.1 hPa Calm   9 km/h 93% 0 mm WeatherDisplay:10.37 W/m2 FEW
14:17 -18.6 °C -19.1 °C 34510.1 hPa SSW 1.6 km/h 2.6 km/h 93% 0 mm WeatherDisplay:10.37 W/m2 FEW
14:22 -18.6 °C -19.1 °C 34510.1 hPa Calm     93% 0 mm WeatherDisplay:10.37 W/m2 FEW
14:27 -18.6 °C -19.1 °C 34510.1 hPa Calm     93% 0 mm WeatherDisplay:10.37 W/m2 FEW
14:32 -18.6 °C -19.2 °C 34510.1 hPa Calm     92% 0 mm WeatherDisplay:10.37 W/m2 FEW
14:37 -18.6 °C -19.2 °C 34510.1 hPa Calm     92% 0 mm WeatherDisplay:10.37 W/m2 FEW
14:42 -18.6 °C -19.2 °C 34510.1 hPa Calm     92% 0 mm WeatherDisplay:10.37 W/m2 FEW
14:47 -18.6 °C -19.1 °C 34510.1 hPa Calm     93% 0 mm WeatherDisplay:10.37 W/m2 FEW
14:52 -18.6 °C -19.1 °C 34510.1 hPa Calm     93% 0 mm WeatherDisplay:10.37 W/m2 FEW
14:57 -18.5 °C -19.1 °C 34510.1 hPa Calm     93% 0 mm WeatherDisplay:10.37 W/m2 FEW
15:02 -18.5 °C -19.1 °C 34510.1 hPa SE 0.8 km/h 9 km/h 93% 0 mm WeatherDisplay:10.37 W/m2 FEW
15:07 -18.5 °C -19.1 °C 34510.1 hPa Calm     92% 0 mm WeatherDisplay:10.37 W/m2 FEW
15:12 -18.5 °C -19.1 °C 34510.1 hPa Calm     92% 0 mm WeatherDisplay:10.37 W/m2 FEW
15:17 -18.6 °C -19.2 °C 34510.1 hPa Calm     92% 0 mm WeatherDisplay:10.37 W/m2 FEW
15:22 -18.6 °C -19.2 °C 34510.1 hPa Calm     92% 0 mm WeatherDisplay:10.37 W/m2 FEW
15:27 -18.6 °C -19.2 °C 34510.1 hPa Calm   9 km/h 92% 0 mm WeatherDisplay:10.37 W/m2 FEW
15:32 -18.6 °C -19.2 °C 34510.1 hPa Calm     92% 0 mm WeatherDisplay:10.37 W/m2 FEW
15:37 -18.6 °C -19.2 °C 34520.3 hPa Calm     92% 0 mm WeatherDisplay:10.37 W/m2 FEW
15:42 -18.7 °C -19.3 °C 34510.1 hPa Calm     92% 0 mm WeatherDisplay:10.37 W/m2 FEW
15:47 -18.7 °C -19.3 °C 34510.1 hPa Calm     92% 0 mm WeatherDisplay:10.37 W/m2 FEW
15:52 -18.7 °C -19.3 °C 34520.3 hPa South 1 km/h 6 km/h 92% 0 mm WeatherDisplay:10.37 W/m2 FEW
15:57 -18.7 °C -19.3 °C 34520.3 hPa Calm     92% 0 mm WeatherDisplay:10.37 W/m2 FEW
16:02 -18.7 °C -19.3 °C 34520.3 hPa Calm     92% 0 mm WeatherDisplay:10.37 W/m2 FEW
16:07 -18.8 °C -19.4 °C 34520.3 hPa SSE 0.3 km/h 2.6 km/h 92% 0 mm WeatherDisplay:10.37 W/m2 FEW
16:12 -18.8 °C -19.4 °C 34510.1 hPa Calm     92% 0 mm WeatherDisplay:10.37 W/m2 FEW
16:17 -18.8 °C -19.4 °C 34520.3 hPa Calm     92% 0 mm WeatherDisplay:10.37 W/m2 FEW
16:22 -18.8 °C -19.4 °C 34520.3 hPa Calm     93% 0 mm WeatherDisplay:10.37 W/m2 FEW
16:27 -18.8 °C -19.4 °C 34520.3 hPa Calm     93% 0 mm WeatherDisplay:10.37 W/m2 FEW
16:32 -18.8 °C -19.4 °C 34520.3 hPa Calm     93% 0 mm WeatherDisplay:10.37 W/m2 FEW
16:37 -18.8 °C -19.4 °C 34520.3 hPa Calm     93% 0 mm WeatherDisplay:10.37 W/m2 FEW
16:42 -18.9 °C -19.4 °C 34520.3 hPa Calm     93% 0 mm WeatherDisplay:10.37 W/m2 FEW
16:47 -18.9 °C -19.5 °C 34520.3 hPa Calm     93% 0 mm WeatherDisplay:10.37 W/m2 FEW
16:52 -18.9 °C -19.5 °C 34520.3 hPa Calm     93% 0 mm WeatherDisplay:10.37 W/m2 FEW
16:57 -19 °C -19.6 °C 34533.8 hPa ESE 0.3 km/h 3.1 km/h 93% 0 mm WeatherDisplay:10.37 W/m2 FEW
17:02 -19 °C -19.6 °C 34533.8 hPa Calm     93% 0 mm WeatherDisplay:10.37 W/m2 FEW
17:07 -19.1 °C -19.6 °C 34533.8 hPa SE 1.3 km/h 9 km/h 93% 0 mm WeatherDisplay:10.37 W/m2 FEW
17:12 -19.1 °C -19.6 °C 34533.8 hPa Calm     93% 0 mm WeatherDisplay:10.37 W/m2 FEW
17:17 -19.1 °C -19.7 °C 34533.8 hPa Calm     92% 0 mm WeatherDisplay:10.37 W/m2 FEW
17:22 -19.1 °C -19.8 °C 34533.8 hPa SSE 0.3 km/h 3.1 km/h 92% 0 mm WeatherDisplay:10.37 W/m2 FEW
17:27 -19.2 °C -19.8 °C 34533.8 hPa Calm     92% 0 mm WeatherDisplay:10.37 W/m2 FEW
17:32 -19.2 °C -19.8 °C 34533.8 hPa SSE 1.8 km/h   92% 0 mm WeatherDisplay:10.37 W/m2 FEW
17:37 -19.3 °C -19.9 °C 34533.8 hPa Calm     92% 0 mm WeatherDisplay:10.37 W/m2 FEW
17:42 -19.3 °C -19.9 °C 34533.8 hPa Calm     92% 0 mm WeatherDisplay:10.37 W/m2 FEW
17:47 -19.3 °C -19.9 °C 34533.8 hPa Calm     92% 0 mm WeatherDisplay:10.37 W/m2 FEW
17:52 -19.3 °C -19.9 °C 34533.8 hPa Calm     92% 0 mm WeatherDisplay:10.37 W/m2 FEW
17:57 -19.3 °C -19.9 °C 34520.3 hPa Calm     92% 0 mm WeatherDisplay:10.37 W/m2 FEW
18:02 -19.4 °C -20 °C 34533.8 hPa Calm     92% 0 mm WeatherDisplay:10.37 W/m2 FEW
18:07 -19.4 °C -20.1 °C 34533.8 hPa Calm     92% 0 mm WeatherDisplay:10.37 W/m2 FEW
18:12 -19.4 °C -20 °C 34533.8 hPa Calm     93% 0 mm WeatherDisplay:10.37 W/m2 FEW
18:17 -19.5 °C -20.1 °C 34533.8 hPa Calm     92% 0 mm WeatherDisplay:10.37 W/m2 FEW
18:22 -19.5 °C -20.1 °C 34533.8 hPa Calm     92% 0 mm WeatherDisplay:10.37 W/m2 FEW
18:27 -19.5 °C -20.1 °C 34533.8 hPa Calm     92% 0 mm WeatherDisplay:10.37 W/m2 FEW
18:32 -19.5 °C -20.1 °C 34533.8 hPa Calm     93% 0 mm WeatherDisplay:10.37 W/m2 FEW
18:37 -19.5 °C -20.1 °C 34533.8 hPa Calm     93% 0 mm WeatherDisplay:10.37 W/m2 FEW
18:42 -19.5 °C -20.1 °C 34533.8 hPa Calm     93% 0 mm WeatherDisplay:10.37 W/m2 FEW
18:47 -19.5 °C -20.1 °C 34533.8 hPa Calm     93% 0 mm WeatherDisplay:10.37 W/m2 FEW
18:52 -19.5 °C -20.1 °C 34533.8 hPa Calm     93% 0 mm WeatherDisplay:10.37 W/m2 FEW
18:57 -19.5 °C -20.1 °C 34533.8 hPa Calm     93% 0 mm WeatherDisplay:10.37 W/m2 FEW
19:02 -19.6 °C -20.1 °C 34533.8 hPa Calm     93% 0 mm WeatherDisplay:10.37 W/m2 FEW
19:07 -19.6 °C -20.1 °C 34533.8 hPa Calm     93% 0 mm WeatherDisplay:10.37 W/m2 FEW
19:12 -19.6 °C -20.1 °C 34533.8 hPa Calm     93% 0 mm WeatherDisplay:10.37 W/m2 FEW
19:17 -19.6 °C -20.1 °C 34533.8 hPa Calm     93% 0 mm WeatherDisplay:10.37 W/m2 FEW
19:22 -19.6 °C -20.1 °C 34533.8 hPa Calm     93% 0 mm WeatherDisplay:10.37 W/m2 FEW
19:27 -19.6 °C -20.2 °C 34533.8 hPa Calm   6 km/h 92% 0 mm WeatherDisplay:10.37 W/m2 FEW
19:32 -19.6 °C -20.2 °C 34533.8 hPa SSE 2.1 km/h 9 km/h 92% 0 mm WeatherDisplay:10.37 W/m2 FEW
19:37 -19.7 °C -20.3 °C 34533.8 hPa SSE 1.6 km/h 9 km/h 92% 0 mm WeatherDisplay:10.37 W/m2 FEW
19:42 -19.7 °C -20.3 °C 34533.8 hPa SSE 0.3 km/h 6 km/h 92% 0 mm WeatherDisplay:10.37 W/m2 FEW
19:47 -19.7 °C -20.3 °C 34533.8 hPa Calm     92% 0 mm WeatherDisplay:10.37 W/m2 FEW
19:52 -19.7 °C -20.3 °C 34533.8 hPa ESE 0.5 km/h 6 km/h 92% 0 mm WeatherDisplay:10.37 W/m2 FEW
19:57 -19.8 °C -20.4 °C 34533.8 hPa Calm     92% 0 mm WeatherDisplay:10.37 W/m2 FEW
20:02 -19.8 °C -20.4 °C 34533.8 hPa Calm     92% 0 mm WeatherDisplay:10.37 W/m2 FEW
20:07 -19.8 °C -20.4 °C 34533.8 hPa Calm     92% 0 mm WeatherDisplay:10.37 W/m2 FEW
20:12 -19.9 °C -20.5 °C 34533.8 hPa Calm     92% 0 mm WeatherDisplay:10.37 W/m2 FEW
20:17 -19.9 °C -20.6 °C 34533.8 hPa Calm     91% 0 mm WeatherDisplay:10.37 W/m2 FEW
20:22 -19.9 °C -20.7 °C 34533.8 hPa Calm     91% 0 mm WeatherDisplay:10.37 W/m2 FEW
20:27 -20.1 °C -20.8 °C 34533.8 hPa Calm     91% 0 mm WeatherDisplay:10.37 W/m2 FEW
20:32 -20.2 °C -20.8 °C 34533.8 hPa Calm     91% 0 mm WeatherDisplay:10.37 W/m2 FEW
20:37 -20.2 °C -20.9 °C 34544 hPa Calm     91% 0 mm WeatherDisplay:10.37 W/m2 FEW
20:42 -20.4 °C -21.1 °C 34544 hPa Calm     91% 0 mm WeatherDisplay:10.37 W/m2 FEW
20:47 -20.4 °C -21.1 °C 34544 hPa Calm     91% 0 mm WeatherDisplay:10.37 W/m2 FEW
20:52 -20.5 °C -21.2 °C 34544 hPa Calm     91% 0 mm WeatherDisplay:10.37 W/m2 FEW
20:57 -20.6 °C -21.3 °C 34544 hPa Calm     91% 0 mm WeatherDisplay:10.37 W/m2 FEW
21:02 -20.7 °C -21.4 °C 34544 hPa Calm     91% 0 mm WeatherDisplay:10.37 W/m2 FEW
21:07 -20.8 °C -21.4 °C 34554.1 hPa Calm     91% 0 mm WeatherDisplay:10.37 W/m2 FEW
21:12 -20.8 °C -21.4 °C 34554.1 hPa Calm     92% 0 mm WeatherDisplay:10.37 W/m2 FEW
21:17 -20.8 °C -21.4 °C 34554.1 hPa Calm     92% 0 mm WeatherDisplay:10.37 W/m2 FEW
21:22 -20.8 °C -21.4 °C 34544 hPa Calm     92% 0 mm WeatherDisplay:10.37 W/m2 FEW
21:27 -20.8 °C -21.4 °C 34554.1 hPa Calm     92% 0 mm WeatherDisplay:10.37 W/m2 FEW
21:32 -20.8 °C -21.3 °C 34554.1 hPa Calm     93% 0 mm WeatherDisplay:10.37 W/m2 FEW
21:37 -20.8 °C -21.3 °C 34554.1 hPa Calm     93% 0 mm WeatherDisplay:10.37 W/m2 FEW
21:42 -20.7 °C -21.2 °C 34554.1 hPa Calm     93% 0 mm WeatherDisplay:10.37 W/m2 FEW
21:47 -20.7 °C -21.2 °C 34554.1 hPa South 0.8 km/h 9 km/h 93% 0 mm WeatherDisplay:10.37 W/m2 FEW
21:52 -20.6 °C -21.2 °C 34554.1 hPa SSE 1 km/h 9 km/h 93% 0 mm WeatherDisplay:10.37 W/m2 FEW
21:57 -20.6 °C -21.1 °C 34554.1 hPa Calm     93% 0 mm WeatherDisplay:10.37 W/m2 FEW
22:02 -20.6 °C -21.1 °C 34554.1 hPa SSE 3.7 km/h 9 km/h 93% 0 mm WeatherDisplay:10.37 W/m2 FEW
22:07 -20.6 °C -21.1 °C 34554.1 hPa Calm     93% 0 mm WeatherDisplay:10.37 W/m2 FEW
22:12 -20.6 °C -21.1 °C 34554.1 hPa Calm     93% 0 mm WeatherDisplay:10.37 W/m2 FEW
22:17 -20.5 °C -21.1 °C 34567.7 hPa Calm     93% 0 mm WeatherDisplay:10.37 W/m2 FEW
22:22 -20.5 °C -21.1 °C 34567.7 hPa Calm     93% 0 mm WeatherDisplay:10.37 W/m2 FEW
22:27 -20.5 °C -21.1 °C 34567.7 hPa Calm     93% 0 mm WeatherDisplay:10.37 W/m2 FEW
22:32 -20.5 °C -21.1 °C 34567.7 hPa Calm     93% 0 mm WeatherDisplay:10.37 W/m2 FEW
22:37 -20.6 °C -21.1 °C 34567.7 hPa Calm     93% 0 mm WeatherDisplay:10.37 W/m2 FEW
22:43 -20.6 °C -21.1 °C 34567.7 hPa Calm     93% 0 mm WeatherDisplay:10.37 W/m2 FEW
22:48 -20.6 °C -21.1 °C 34567.7 hPa Calm     93% 0 mm WeatherDisplay:10.37 W/m2 FEW
22:53 -20.6 °C -21.2 °C 34567.7 hPa Calm     92% 0 mm WeatherDisplay:10.37 W/m2 FEW
22:58 -20.7 °C -21.3 °C 34567.7 hPa Calm     92% 0 mm WeatherDisplay:10.37 W/m2 FEW
23:03 -20.7 °C -21.3 °C 34567.7 hPa Calm     92% 0 mm WeatherDisplay:10.37 W/m2 FEW
23:08 -20.8 °C -21.4 °C 34567.7 hPa Calm     92% 0 mm WeatherDisplay:10.37 W/m2 FEW
23:13 -20.9 °C -21.6 °C 34554.1 hPa Calm     91% 0 mm WeatherDisplay:10.37 W/m2 FEW
23:18 -21 °C -21.7 °C 34554.1 hPa Calm     91% 0 mm WeatherDisplay:10.37 W/m2 FEW
23:24 -21.2 °C -21.8 °C 34554.1 hPa Calm     91% 0 mm WeatherDisplay:10.37 W/m2 FEW
23:29 -21.3 °C -22 °C 34554.1 hPa Calm     91% 0 mm WeatherDisplay:10.37 W/m2 FEW
23:34 -21.5 °C -22.2 °C 34567.7 hPa Calm     91% 0 mm WeatherDisplay:10.37 W/m2 FEW
23:39 -21.6 °C -22.3 °C 34567.7 hPa Calm     91% 0 mm WeatherDisplay:10.37 W/m2 FEW
23:44 -21.7 °C -22.4 °C 34567.7 hPa Calm     91% 0 mm WeatherDisplay:10.37 W/m2 FEW
23:49 -21.8 °C -22.6 °C 34567.7 hPa Calm     90% 0 mm WeatherDisplay:10.37 W/m2 FEW
23:54 -22 °C -22.7 °C 34567.7 hPa Calm     91% 0 mm WeatherDisplay:10.37 W/m2 FEW
23:59 -22.1 °C -22.8 °C 34567.7 hPa Calm     91% 0 mm WeatherDisplay:10.37 W/m2 FEW
Tuulensuunkaari, Veikkola, Suomi
Compliments of Weather Underground - 2.75 mb